sensor_id;sensor_type;location;lat;lon;timestamp;pressure;altitude;pressure_sealevel;temperature;humidity
69167;BME280;56273;53.148;8.204;2022-09-02T00:00:56;102082.09;;;23.24;nan
69167;BME280;56273;53.148;8.204;2022-09-02T00:03:25;102073.28;;;23.22;nan
69167;BME280;56273;53.148;8.204;2022-09-02T00:05:51;102078.63;;;23.22;nan
69167;BME280;56273;53.148;8.204;2022-09-02T00:08:16;102079.56;;;23.21;nan
69167;BME280;56273;53.148;8.204;2022-09-02T00:10:42;102076.81;;;23.23;nan
69167;BME280;56273;53.148;8.204;2022-09-02T00:13:09;102074.22;;;23.21;nan
69167;BME280;56273;53.148;8.204;2022-09-02T00:15:39;102071.63;;;23.20;nan
69167;BME280;56273;53.148;8.204;2022-09-02T00:18:04;102077.91;;;23.19;nan
69167;BME280;56273;53.148;8.204;2022-09-02T00:20:30;102071.75;;;23.17;nan
69167;BME280;56273;53.148;8.204;2022-09-02T00:22:56;102081.56;;;23.16;nan
69167;BME280;56273;53.148;8.204;2022-09-02T00:25:21;102075.34;;;23.16;nan
69167;BME280;56273;53.148;8.204;2022-09-02T00:27:47;102070.13;;;23.13;nan
69167;BME280;56273;53.148;8.204;2022-09-02T00:30:13;102075.47;;;23.13;nan
69167;BME280;56273;53.148;8.204;2022-09-02T00:32:38;102079.94;;;23.12;nan
69167;BME280;56273;53.148;8.204;2022-09-02T00:35:04;102078.22;;;23.11;nan
69167;BME280;56273;53.148;8.204;2022-09-02T00:37:30;102068.50;;;23.09;nan
69167;BME280;56273;53.148;8.204;2022-09-02T00:39:55;102072.13;;;23.08;nan
69167;BME280;56273;53.148;8.204;2022-09-02T00:42:21;102064.19;;;23.06;nan
69167;BME280;56273;53.148;8.204;2022-09-02T00:44:47;102070.41;;;23.07;nan
69167;BME280;56273;53.148;8.204;2022-09-02T00:47:13;102068.72;;;23.04;nan
69167;BME280;56273;53.148;8.204;2022-09-02T00:49:39;102063.44;;;23.02;nan
69167;BME280;56273;53.148;8.204;2022-09-02T00:54:50;102057.31;;;23.00;nan
69167;BME280;56273;53.148;8.204;2022-09-02T00:57:18;102064.47;;;23.00;nan
69167;BME280;56273;53.148;8.204;2022-09-02T00:59:55;102055.53;;;22.99;nan
69167;BME280;56273;53.148;8.204;2022-09-02T01:02:31;102055.63;;;22.98;nan
69167;BME280;56273;53.148;8.204;2022-09-02T01:04:57;102058.38;;;22.96;nan
69167;BME280;56273;53.148;8.204;2022-09-02T01:07:27;102053.88;;;22.97;nan
69167;BME280;56273;53.148;8.204;2022-09-02T01:09:54;102052.16;;;22.96;nan
69167;BME280;56273;53.148;8.204;2022-09-02T01:12:21;102053.97;;;22.95;nan
69167;BME280;56273;53.148;8.204;2022-09-02T01:14:48;102054.94;;;22.93;nan
69167;BME280;56273;53.148;8.204;2022-09-02T01:17:14;102046.94;;;22.93;nan
69167;BME280;56273;53.148;8.204;2022-09-02T01:19:44;102048.75;;;22.92;nan
69167;BME280;56273;53.148;8.204;2022-09-02T01:22:15;102056.75;;;22.92;nan
69167;BME280;56273;53.148;8.204;2022-09-02T01:24:42;102042.63;;;22.90;nan
69167;BME280;56273;53.148;8.204;2022-09-02T01:27:07;102040.84;;;22.89;nan
69167;BME280;56273;53.148;8.204;2022-09-02T01:29:33;102035.56;;;22.88;nan
69167;BME280;56273;53.148;8.204;2022-09-02T01:31:58;102041.84;;;22.87;nan
69167;BME280;56273;53.148;8.204;2022-09-02T01:34:23;102040.97;;;22.86;nan
69167;BME280;56273;53.148;8.204;2022-09-02T01:36:49;102040.03;;;22.87;nan
69167;BME280;56273;53.148;8.204;2022-09-02T01:39:15;102040.97;;;22.86;nan
69167;BME280;56273;53.148;8.204;2022-09-02T01:41:41;102033.84;;;22.85;nan
69167;BME280;56273;53.148;8.204;2022-09-02T01:44:06;102032.13;;;22.84;nan
69167;BME280;56273;53.148;8.204;2022-09-02T01:46:33;102037.47;;;22.84;nan
69167;BME280;56273;53.148;8.204;2022-09-02T01:48:59;102025.94;;;22.84;nan
69167;BME280;56273;53.148;8.204;2022-09-02T01:51:24;102025.06;;;22.83;nan
69167;BME280;56273;53.148;8.204;2022-09-02T01:53:50;102026.88;;;22.83;nan
69167;BME280;56273;53.148;8.204;2022-09-02T01:56:15;102020.66;;;22.82;nan
69167;BME280;56273;53.148;8.204;2022-09-02T01:58:41;102024.28;;;22.81;nan
69167;BME280;56273;53.148;8.204;2022-09-02T02:01:07;102021.72;;;22.78;nan
69167;BME280;56273;53.148;8.204;2022-09-02T02:03:33;102020.00;;;22.77;nan
69167;BME280;56273;53.148;8.204;2022-09-02T02:05:59;102023.59;;;22.76;nan
69167;BME280;56273;53.148;8.204;2022-09-02T02:08:25;102021.84;;;22.75;nan
69167;BME280;56273;53.148;8.204;2022-09-02T02:10:51;102015.63;;;22.74;nan
69167;BME280;56273;53.148;8.204;2022-09-02T02:13:16;102013.91;;;22.73;nan
69167;BME280;56273;53.148;8.204;2022-09-02T02:15:42;102016.50;;;22.75;nan
69167;BME280;56273;53.148;8.204;2022-09-02T02:18:08;102017.44;;;22.74;nan
69167;BME280;56273;53.148;8.204;2022-09-02T02:20:33;102015.78;;;22.71;nan
69167;BME280;56273;53.148;8.204;2022-09-02T02:22:59;102016.66;;;22.72;nan
69167;BME280;56273;53.148;8.204;2022-09-02T02:25:25;102014.91;;;22.71;nan
69167;BME280;56273;53.148;8.204;2022-09-02T02:27:50;102013.16;;;22.70;nan
69167;BME280;56273;53.148;8.204;2022-09-02T02:30:16;102014.97;;;22.69;nan
69167;BME280;56273;53.148;8.204;2022-09-02T02:32:42;102012.28;;;22.69;nan
69167;BME280;56273;53.148;8.204;2022-09-02T02:35:09;102007.97;;;22.67;nan
69167;BME280;56273;53.148;8.204;2022-09-02T02:37:35;101999.00;;;22.68;nan
69167;BME280;56273;53.148;8.204;2022-09-02T02:40:01;102003.50;;;22.67;nan
69167;BME280;56273;53.148;8.204;2022-09-02T02:42:29;101998.19;;;22.66;nan
69167;BME280;56273;53.148;8.204;2022-09-02T02:44:54;101999.13;;;22.65;nan
69167;BME280;56273;53.148;8.204;2022-09-02T02:47:19;101997.41;;;22.64;nan
69167;BME280;56273;53.148;8.204;2022-09-02T02:49:45;101990.34;;;22.63;nan
69167;BME280;56273;53.148;8.204;2022-09-02T02:52:10;101993.78;;;22.65;nan
69167;BME280;56273;53.148;8.204;2022-09-02T02:54:36;101994.72;;;22.64;nan
69167;BME280;56273;53.148;8.204;2022-09-02T02:57:02;101990.34;;;22.63;nan
69167;BME280;56273;53.148;8.204;2022-09-02T02:59:29;101986.84;;;22.61;nan
69167;BME280;56273;53.148;8.204;2022-09-02T03:01:54;101990.44;;;22.60;nan
69167;BME280;56273;53.148;8.204;2022-09-02T03:04:20;101994.06;;;22.59;nan
69167;BME280;56273;53.148;8.204;2022-09-02T03:06:45;101993.25;;;22.57;nan
69167;BME280;56273;53.148;8.204;2022-09-02T03:09:11;101986.06;;;22.59;nan
69167;BME280;56273;53.148;8.204;2022-09-02T03:11:36;101993.19;;;22.58;nan
69167;BME280;56273;53.148;8.204;2022-09-02T03:14:02;101992.31;;;22.58;nan
69167;BME280;56273;53.148;8.204;2022-09-02T03:16:29;101992.31;;;22.58;nan
69167;BME280;56273;53.148;8.204;2022-09-02T03:18:54;101985.25;;;22.57;nan
69167;BME280;56273;53.148;8.204;2022-09-02T03:21:19;101987.03;;;22.56;nan
69167;BME280;56273;53.148;8.204;2022-09-02T03:23:45;101983.56;;;22.54;nan
69167;BME280;56273;53.148;8.204;2022-09-02T03:26:11;101982.72;;;22.53;nan
69167;BME280;56273;53.148;8.204;2022-09-02T03:28:40;101984.50;;;22.53;nan
69167;BME280;56273;53.148;8.204;2022-09-02T03:31:06;101988.13;;;22.52;nan
69167;BME280;56273;53.148;8.204;2022-09-02T03:33:32;101981.88;;;22.51;nan
69167;BME280;56273;53.148;8.204;2022-09-02T03:35:58;101976.53;;;22.51;nan
69167;BME280;56273;53.148;8.204;2022-09-02T03:38:23;101979.28;;;22.50;nan
69167;BME280;56273;53.148;8.204;2022-09-02T03:40:49;101978.44;;;22.49;nan
69167;BME280;56273;53.148;8.204;2022-09-02T03:43:14;101971.41;;;22.47;nan
69167;BME280;56273;53.148;8.204;2022-09-02T03:45:40;101973.19;;;22.46;nan
69167;BME280;56273;53.148;8.204;2022-09-02T03:48:07;101985.63;;;22.47;nan
69167;BME280;56273;53.148;8.204;2022-09-02T03:50:36;101973.19;;;22.46;nan
69167;BME280;56273;53.148;8.204;2022-09-02T03:53:03;101981.22;;;22.46;nan
69167;BME280;56273;53.148;8.204;2022-09-02T03:55:29;101974.13;;;22.45;nan
69167;BME280;56273;53.148;8.204;2022-09-02T03:57:55;101968.88;;;22.44;nan
69167;BME280;56273;53.148;8.204;2022-09-02T04:00:21;101962.69;;;22.43;nan
69167;BME280;56273;53.148;8.204;2022-09-02T04:02:54;101966.22;;;22.44;nan
69167;BME280;56273;53.148;8.204;2022-09-02T04:05:20;101968.00;;;22.43;nan
69167;BME280;56273;53.148;8.204;2022-09-02T04:10:11;101958.28;;;22.42;nan
69167;BME280;56273;53.148;8.204;2022-09-02T04:12:36;101962.78;;;22.40;nan
69167;BME280;56273;53.148;8.204;2022-09-02T04:15:03;101962.78;;;22.40;nan
69167;BME280;56273;53.148;8.204;2022-09-02T04:17:30;101963.72;;;22.39;nan
69167;BME280;56273;53.148;8.204;2022-09-02T04:19:55;101961.91;;;22.40;nan
69167;BME280;56273;53.148;8.204;2022-09-02T04:22:21;101963.72;;;22.39;nan
69167;BME280;56273;53.148;8.204;2022-09-02T04:24:46;101962.00;;;22.38;nan
69167;BME280;56273;53.148;8.204;2022-09-02T04:27:11;101964.66;;;22.38;nan
69167;BME280;56273;53.148;8.204;2022-09-02T04:29:37;101957.56;;;22.37;nan
69167;BME280;56273;53.148;8.204;2022-09-02T04:32:02;101963.84;;;22.36;nan
69167;BME280;56273;53.148;8.204;2022-09-02T04:34:27;101955.84;;;22.36;nan
69167;BME280;56273;53.148;8.204;2022-09-02T04:36:53;101954.09;;;22.35;nan
69167;BME280;56273;53.148;8.204;2022-09-02T04:39:18;101956.78;;;22.35;nan
69167;BME280;56273;53.148;8.204;2022-09-02T04:41:44;101957.72;;;22.34;nan
69167;BME280;56273;53.148;8.204;2022-09-02T04:44:09;101956.88;;;22.32;nan
69167;BME280;56273;53.148;8.204;2022-09-02T04:46:34;101949.78;;;22.33;nan
69167;BME280;56273;53.148;8.204;2022-09-02T04:49:00;101955.97;;;22.33;nan
69167;BME280;56273;53.148;8.204;2022-09-02T04:51:26;101954.28;;;22.31;nan
69167;BME280;56273;53.148;8.204;2022-09-02T04:53:52;101947.31;;;22.28;nan
69167;BME280;56273;53.148;8.204;2022-09-02T04:56:20;101949.16;;;22.26;nan
69167;BME280;56273;53.148;8.204;2022-09-02T04:58:48;101949.25;;;22.23;nan
69167;BME280;56273;53.148;8.204;2022-09-02T05:01:16;101948.41;;;22.22;nan
69167;BME280;56273;53.148;8.204;2022-09-02T05:03:45;101944.88;;;22.22;nan
69167;BME280;56273;53.148;8.204;2022-09-02T05:06:12;101943.13;;;22.21;nan
69167;BME280;56273;53.148;8.204;2022-09-02T05:08:40;101953.00;;;22.19;nan
69167;BME280;56273;53.148;8.204;2022-09-02T05:11:06;101953.00;;;22.19;nan
69167;BME280;56273;53.148;8.204;2022-09-02T05:13:33;101951.25;;;22.18;nan
69167;BME280;56273;53.148;8.204;2022-09-02T05:15:59;101951.31;;;22.16;nan
69167;BME280;56273;53.148;8.204;2022-09-02T05:18:24;101953.13;;;22.16;nan
69167;BME280;56273;53.148;8.204;2022-09-02T05:20:50;101951.50;;;22.12;nan
69167;BME280;56273;53.148;8.204;2022-09-02T05:23:15;101956.84;;;22.12;nan
69167;BME280;56273;53.148;8.204;2022-09-02T05:25:41;101955.06;;;22.11;nan
69167;BME280;56273;53.148;8.204;2022-09-02T05:28:06;101960.34;;;22.14;nan
69167;BME280;56273;53.148;8.204;2022-09-02T05:30:36;101955.88;;;22.14;nan
69167;BME280;56273;53.148;8.204;2022-09-02T05:33:02;101955.72;;;22.17;nan
69167;BME280;56273;53.148;8.204;2022-09-02T05:35:28;101955.69;;;22.19;nan
69167;BME280;56273;53.148;8.204;2022-09-02T05:37:53;101962.75;;;22.20;nan
69167;BME280;56273;53.148;8.204;2022-09-02T05:40:19;101964.53;;;22.19;nan
69167;BME280;56273;53.148;8.204;2022-09-02T05:42:44;101954.75;;;22.20;nan
69167;BME280;56273;53.148;8.204;2022-09-02T05:45:09;101960.00;;;22.21;nan
69167;BME280;56273;53.148;8.204;2022-09-02T05:47:35;101955.59;;;22.20;nan
69167;BME280;56273;53.148;8.204;2022-09-02T05:50:00;101956.47;;;22.21;nan
69167;BME280;56273;53.148;8.204;2022-09-02T05:52:26;101953.00;;;22.19;nan
69167;BME280;56273;53.148;8.204;2022-09-02T05:54:52;101952.06;;;22.20;nan
69167;BME280;56273;53.148;8.204;2022-09-02T05:57:19;101950.28;;;22.20;nan
69167;BME280;56273;53.148;8.204;2022-09-02T05:59:45;101946.66;;;22.21;nan
69167;BME280;56273;53.148;8.204;2022-09-02T06:02:13;101957.25;;;22.23;nan
69167;BME280;56273;53.148;8.204;2022-09-02T06:04:41;101953.63;;;22.25;nan
69167;BME280;56273;53.148;8.204;2022-09-02T06:07:09;101951.75;;;22.27;nan
69167;BME280;56273;53.148;8.204;2022-09-02T06:09:35;101949.91;;;22.30;nan
69167;BME280;56273;53.148;8.204;2022-09-02T06:12:00;101940.88;;;22.32;nan
69167;BME280;56273;53.148;8.204;2022-09-02T06:14:27;101939.97;;;22.33;nan
69167;BME280;56273;53.148;8.204;2022-09-02T06:16:53;101945.16;;;22.36;nan
69167;BME280;56273;53.148;8.204;2022-09-02T06:19:20;101944.19;;;22.39;nan
69167;BME280;56273;53.148;8.204;2022-09-02T06:21:47;101943.25;;;22.40;nan
69167;BME280;56273;53.148;8.204;2022-09-02T06:24:12;101946.72;;;22.42;nan
69167;BME280;56273;53.148;8.204;2022-09-02T06:26:38;101948.41;;;22.44;nan
69167;BME280;56273;53.148;8.204;2022-09-02T06:29:05;101950.94;;;22.47;nan
69167;BME280;56273;53.148;8.204;2022-09-02T06:31:31;101941.94;;;22.50;nan
69167;BME280;56273;53.148;8.204;2022-09-02T06:33:56;101955.19;;;22.51;nan
69167;BME280;56273;53.148;8.204;2022-09-02T06:36:23;101950.69;;;22.53;nan
69167;BME280;56273;53.148;8.204;2022-09-02T06:38:50;101955.94;;;22.55;nan
69167;BME280;56273;53.148;8.204;2022-09-02T06:41:18;101955.91;;;22.57;nan
69167;BME280;56273;53.148;8.204;2022-09-02T06:43:47;101949.63;;;22.58;nan
69167;BME280;56273;53.148;8.204;2022-09-02T06:46:23;101951.28;;;22.60;nan
69167;BME280;56273;53.148;8.204;2022-09-02T06:48:50;101952.16;;;22.61;nan
69167;BME280;56273;53.148;8.204;2022-09-02T06:51:17;101952.97;;;22.63;nan
69167;BME280;56273;53.148;8.204;2022-09-02T06:53:44;101952.03;;;22.64;nan
69167;BME280;56273;53.148;8.204;2022-09-02T06:56:10;101949.25;;;22.67;nan
69167;BME280;56273;53.148;8.204;2022-09-02T06:58:35;101943.81;;;22.68;nan
69167;BME280;56273;53.148;8.204;2022-09-02T07:01:00;101942.88;;;22.69;nan
69167;BME280;56273;53.148;8.204;2022-09-02T07:03:26;101948.19;;;22.71;nan
69167;BME280;56273;53.148;8.204;2022-09-02T07:06:10;101939.16;;;22.73;nan
69167;BME280;56273;53.148;8.204;2022-09-02T07:08:37;101943.50;;;22.76;nan
69167;BME280;56273;53.148;8.204;2022-09-02T07:11:04;101938.97;;;22.78;nan
69167;BME280;56273;53.148;8.204;2022-09-02T07:13:31;101936.22;;;22.79;nan
69167;BME280;56273;53.148;8.204;2022-09-02T07:15:57;101931.69;;;22.82;nan
69167;BME280;56273;53.148;8.204;2022-09-02T07:18:22;101929.81;;;22.84;nan
69167;BME280;56273;53.148;8.204;2022-09-02T07:20:47;101923.47;;;22.86;nan
69167;BME280;56273;53.148;8.204;2022-09-02T07:23:13;101924.28;;;22.88;nan
69167;BME280;56273;53.148;8.204;2022-09-02T07:25:40;101926.03;;;22.89;nan
69167;BME280;56273;53.148;8.204;2022-09-02T07:28:06;101928.66;;;22.91;nan
69167;BME280;56273;53.148;8.204;2022-09-02T07:30:32;101928.50;;;22.94;nan
69167;BME280;56273;53.148;8.204;2022-09-02T07:32:58;101927.59;;;22.95;nan
69167;BME280;56273;53.148;8.204;2022-09-02T07:35:23;101923.91;;;22.97;nan
69167;BME280;56273;53.148;8.204;2022-09-02T07:37:49;101922.97;;;22.98;nan
69167;BME280;56273;53.148;8.204;2022-09-02T07:40:14;101921.03;;;23.02;nan
69167;BME280;56273;53.148;8.204;2022-09-02T07:42:40;101919.13;;;23.04;nan
69167;BME280;56273;53.148;8.204;2022-09-02T07:45:07;101929.63;;;23.09;nan
69167;BME280;56273;53.148;8.204;2022-09-02T07:47:33;101925.88;;;23.13;nan
69167;BME280;56273;53.148;8.204;2022-09-02T07:49:58;101924.03;;;23.15;nan
69167;BME280;56273;53.148;8.204;2022-09-02T07:52:24;101923.00;;;23.17;nan
69167;BME280;56273;53.148;8.204;2022-09-02T07:54:50;101920.22;;;23.20;nan
69167;BME280;56273;53.148;8.204;2022-09-02T07:57:15;101916.50;;;23.23;nan
69167;BME280;56273;53.148;8.204;2022-09-02T07:59:40;101924.41;;;23.26;nan
69167;BME280;56273;53.148;8.204;2022-09-02T08:02:06;101918.97;;;23.27;nan
69167;BME280;56273;53.148;8.204;2022-09-02T08:04:33;101921.53;;;23.30;nan
69167;BME280;56273;53.148;8.204;2022-09-02T08:06:58;101927.66;;;23.33;nan
69167;BME280;56273;53.148;8.204;2022-09-02T08:09:24;101926.66;;;23.35;nan
69167;BME280;56273;53.148;8.204;2022-09-02T08:11:49;101917.56;;;23.39;nan
69167;BME280;56273;53.148;8.204;2022-09-02T08:14:17;101920.06;;;23.42;nan
69167;BME280;56273;53.148;8.204;2022-09-02T08:16:45;101918.22;;;23.44;nan
69167;BME280;56273;53.148;8.204;2022-09-02T08:19:12;101920.72;;;23.47;nan
69167;BME280;56273;53.148;8.204;2022-09-02T08:21:37;101924.22;;;23.49;nan
69167;BME280;56273;53.148;8.204;2022-09-02T08:24:03;101911.63;;;23.51;nan
69167;BME280;56273;53.148;8.204;2022-09-02T08:26:29;101917.72;;;23.55;nan
69167;BME280;56273;53.148;8.204;2022-09-02T08:28:55;101907.78;;;23.57;nan
69167;BME280;56273;53.148;8.204;2022-09-02T08:31:20;101914.81;;;23.60;nan
69167;BME280;56273;53.148;8.204;2022-09-02T08:33:46;101912.94;;;23.62;nan
69167;BME280;56273;53.148;8.204;2022-09-02T08:36:11;101918.19;;;23.65;nan
69167;BME280;56273;53.148;8.204;2022-09-02T08:38:39;101917.19;;;23.67;nan
69167;BME280;56273;53.148;8.204;2022-09-02T08:41:24;101910.81;;;23.70;nan
69167;BME280;56273;53.148;8.204;2022-09-02T08:43:55;101910.66;;;23.73;nan
69167;BME280;56273;53.148;8.204;2022-09-02T08:46:23;101906.06;;;23.76;nan
69167;BME280;56273;53.148;8.204;2022-09-02T08:51:21;101908.47;;;23.81;nan
69167;BME280;56273;53.148;8.204;2022-09-02T08:56:35;101908.25;;;23.86;nan
69167;BME280;56273;53.148;8.204;2022-09-02T08:59:01;101902.84;;;23.87;nan
69167;BME280;56273;53.148;8.204;2022-09-02T09:12:36;101889.66;;;24.01;nan
69167;BME280;56273;53.148;8.204;2022-09-02T09:15:10;101876.94;;;24.06;nan
69167;BME280;56273;53.148;8.204;2022-09-02T09:20:26;101884.66;;;24.13;nan
69167;BME280;56273;53.148;8.204;2022-09-02T09:23:27;101873.84;;;24.14;nan
69167;BME280;56273;53.148;8.204;2022-09-02T09:25:56;101878.22;;;24.17;nan
69167;BME280;56273;53.148;8.204;2022-09-02T09:28:30;101872.72;;;24.20;nan
69167;BME280;56273;53.148;8.204;2022-09-02T09:30:58;101870.66;;;24.25;nan
69167;BME280;56273;53.148;8.204;2022-09-02T09:33:25;101870.56;;;24.26;nan
69167;BME280;56273;53.148;8.204;2022-09-02T09:35:53;101859.78;;;24.28;nan
69167;BME280;56273;53.148;8.204;2022-09-02T09:38:29;101854.28;;;24.31;nan
69167;BME280;56273;53.148;8.204;2022-09-02T09:41:38;101854.16;;;24.34;nan
69167;BME280;56273;53.148;8.204;2022-09-02T09:43:46;101852.28;;;24.36;nan
69167;BME280;56273;53.148;8.204;2022-09-02T09:46:45;101853.84;;;24.40;nan
69167;BME280;56273;53.148;8.204;2022-09-02T09:49:04;101850.09;;;24.44;nan
69167;BME280;56273;53.148;8.204;2022-09-02T09:51:30;101845.50;;;24.46;nan
69167;BME280;56273;53.148;8.204;2022-09-02T09:54:14;101848.03;;;24.49;nan
69167;BME280;56273;53.148;8.204;2022-09-02T09:56:40;101841.63;;;24.52;nan
69167;BME280;56273;53.148;8.204;2022-09-02T09:59:06;101834.41;;;24.54;nan
69167;BME280;56273;53.148;8.204;2022-09-02T10:01:33;101837.00;;;24.55;nan
69167;BME280;56273;53.148;8.204;2022-09-02T10:09:03;101836.66;;;24.62;nan
69167;BME280;56273;53.148;8.204;2022-09-02T10:11:57;101833.94;;;24.63;nan
69167;BME280;56273;53.148;8.204;2022-09-02T10:14:22;101827.72;;;24.63;nan
69167;BME280;56273;53.148;8.204;2022-09-02T10:30:17;101809.41;;;24.71;nan
69167;BME280;56273;53.148;8.204;2022-09-02T10:35:39;101795.88;;;24.74;nan
69167;BME280;56273;53.148;8.204;2022-09-02T10:43:49;101791.13;;;24.79;nan
69167;BME280;56273;53.148;8.204;2022-09-02T10:46:20;101781.19;;;24.81;nan
69167;BME280;56273;53.148;8.204;2022-09-02T10:54:26;101769.44;;;24.83;nan
69167;BME280;56273;53.148;8.204;2022-09-02T10:57:14;101764.00;;;24.85;nan
69167;BME280;56273;53.148;8.204;2022-09-02T11:00:04;101765.72;;;24.86;nan
69167;BME280;56273;53.148;8.204;2022-09-02T11:02:40;101762.97;;;24.88;nan
69167;BME280;56273;53.148;8.204;2022-09-02T11:05:13;101762.53;;;24.95;nan
69167;BME280;56273;53.148;8.204;2022-09-02T11:07:47;101758.84;;;24.98;nan
69167;BME280;56273;53.148;8.204;2022-09-02T11:10:19;101765.16;;;24.97;nan
69167;BME280;56273;53.148;8.204;2022-09-02T11:12:53;101756.25;;;24.96;nan
69167;BME280;56273;53.148;8.204;2022-09-02T11:15:45;101754.34;;;24.98;nan
69167;BME280;56273;53.148;8.204;2022-09-02T11:24:03;101748.97;;;24.98;nan
69167;BME280;56273;53.148;8.204;2022-09-02T11:29:31;101739.03;;;25.00;nan
69167;BME280;56273;53.148;8.204;2022-09-02T11:32:27;101738.00;;;25.03;nan
69167;BME280;56273;53.148;8.204;2022-09-02T11:35:03;101743.28;;;25.04;nan
69167;BME280;56273;53.148;8.204;2022-09-02T11:37:33;101723.56;;;25.05;nan
69167;BME280;56273;53.148;8.204;2022-09-02T11:40:08;101724.53;;;25.04;nan
69167;BME280;56273;53.148;8.204;2022-09-02T11:45:22;101718.06;;;25.08;nan
69167;BME280;56273;53.148;8.204;2022-09-02T11:48:04;101719.97;;;25.06;nan
69167;BME280;56273;53.148;8.204;2022-09-02T11:53:30;101722.47;;;25.10;nan
69167;BME280;56273;53.148;8.204;2022-09-02T11:56:12;101721.72;;;25.07;nan
69167;BME280;56273;53.148;8.204;2022-09-02T11:58:47;101715.41;;;25.08;nan
69167;BME280;56273;53.148;8.204;2022-09-02T12:01:24;101718.06;;;25.08;nan
69167;BME280;56273;53.148;8.204;2022-09-02T12:03:57;101709.09;;;25.10;nan
69167;BME280;56273;53.148;8.204;2022-09-02T12:06:26;101713.56;;;25.09;nan
69167;BME280;56273;53.148;8.204;2022-09-02T12:17:05;101698.38;;;25.10;nan
69167;BME280;56273;53.148;8.204;2022-09-02T12:24:47;101699.94;;;25.14;nan
69167;BME280;56273;53.148;8.204;2022-09-02T12:27:47;101691.78;;;25.15;nan
69167;BME280;56273;53.148;8.204;2022-09-02T12:30:09;101690.94;;;25.15;nan
69167;BME280;56273;53.148;8.204;2022-09-02T12:35:20;101681.00;;;25.17;nan
69167;BME280;56273;53.148;8.204;2022-09-02T12:40:52;101676.78;;;25.13;nan
69167;BME280;56273;53.148;8.204;2022-09-02T12:43:26;101669.59;;;25.13;nan
69167;BME280;56273;53.148;8.204;2022-09-02T12:46:02;101673.94;;;25.16;nan
69167;BME280;56273;53.148;8.204;2022-09-02T12:48:41;101666.66;;;25.18;nan
69167;BME280;56273;53.148;8.204;2022-09-02T12:51:13;101661.19;;;25.19;nan
69167;BME280;56273;53.148;8.204;2022-09-02T12:54:13;101660.25;;;25.20;nan
69167;BME280;56273;53.148;8.204;2022-09-02T12:56:45;101658.44;;;25.21;nan
69167;BME280;56273;53.148;8.204;2022-09-02T12:59:18;101655.34;;;25.13;nan
69167;BME280;56273;53.148;8.204;2022-09-02T13:12:49;101653.09;;;25.21;nan
69167;BME280;56273;53.148;8.204;2022-09-02T13:15:39;101645.97;;;25.20;nan
69167;BME280;56273;53.148;8.204;2022-09-02T13:18:51;101642.63;;;25.16;nan
69167;BME280;56273;53.148;8.204;2022-09-02T13:24:15;101634.16;;;25.08;nan
69167;BME280;56273;53.148;8.204;2022-09-02T13:33:05;101619.53;;;25.14;nan
69167;BME280;56273;53.148;8.204;2022-09-02T13:35:34;101616.09;;;25.12;nan
69167;BME280;56273;53.148;8.204;2022-09-02T13:38:07;101619.09;;;25.05;nan
69167;BME280;56273;53.148;8.204;2022-09-02T13:40:35;101615.75;;;25.02;nan
69167;BME280;56273;53.148;8.204;2022-09-02T13:43:03;101620.31;;;25.00;nan
69167;BME280;56273;53.148;8.204;2022-09-02T13:45:42;101621.09;;;25.02;nan
69167;BME280;56273;53.148;8.204;2022-09-02T13:50:48;101598.81;;;25.01;nan
69167;BME280;56273;53.148;8.204;2022-09-02T13:53:30;101596.28;;;24.98;nan
69167;BME280;56273;53.148;8.204;2022-09-02T13:56:09;101600.69;;;24.99;nan
69167;BME280;56273;53.148;8.204;2022-09-02T13:58:40;101602.41;;;25.00;nan
69167;BME280;56273;53.148;8.204;2022-09-02T14:01:22;101609.78;;;24.97;nan
69167;BME280;56273;53.148;8.204;2022-09-02T14:03:52;101607.38;;;24.92;nan
69167;BME280;56273;53.148;8.204;2022-09-02T14:06:20;101599.34;;;24.92;nan
69167;BME280;56273;53.148;8.204;2022-09-02T14:08:54;101589.38;;;24.94;nan
69167;BME280;56273;53.148;8.204;2022-09-02T14:11:22;101599.50;;;24.89;nan
69167;BME280;56273;53.148;8.204;2022-09-02T14:13:49;101596.06;;;24.87;nan
69167;BME280;56273;53.148;8.204;2022-09-02T14:16:34;101595.53;;;24.80;nan
69167;BME280;56273;53.148;8.204;2022-09-02T14:21:32;101589.31;;;24.80;nan
69167;BME280;56273;53.148;8.204;2022-09-02T14:23:59;101574.97;;;24.81;nan
69167;BME280;56273;53.148;8.204;2022-09-02T14:26:37;101579.56;;;24.79;nan
69167;BME280;56273;53.148;8.204;2022-09-02T14:29:07;101575.16;;;24.78;nan
69167;BME280;56273;53.148;8.204;2022-09-02T14:31:36;101576.13;;;24.77;nan
69167;BME280;56273;53.148;8.204;2022-09-02T14:34:01;101579.72;;;24.76;nan
69167;BME280;56273;53.148;8.204;2022-09-02T14:36:30;101577.03;;;24.76;nan
69167;BME280;56273;53.148;8.204;2022-09-02T14:39:14;101576.28;;;24.74;nan
69167;BME280;56273;53.148;8.204;2022-09-02T14:41:50;101571.03;;;24.72;nan
69167;BME280;56273;53.148;8.204;2022-09-02T14:46:52;101557.91;;;24.68;nan
69167;BME280;56273;53.148;8.204;2022-09-02T14:49:24;101563.84;;;24.73;nan
69167;BME280;56273;53.148;8.204;2022-09-02T14:51:53;101560.97;;;24.76;nan
69167;BME280;56273;53.148;8.204;2022-09-02T14:54:35;101551.81;;;24.80;nan
69167;BME280;56273;53.148;8.204;2022-09-02T14:57:00;101548.13;;;24.82;nan
69167;BME280;56273;53.148;8.204;2022-09-02T14:59:27;101549.94;;;24.82;nan
69167;BME280;56273;53.148;8.204;2022-09-02T15:01:52;101559.09;;;24.78;nan
69167;BME280;56273;53.148;8.204;2022-09-02T15:04:20;101567.47;;;24.72;nan
69167;BME280;56273;53.148;8.204;2022-09-02T15:06:46;101560.59;;;24.68;nan
69167;BME280;56273;53.148;8.204;2022-09-02T15:09:13;101562.47;;;24.66;nan
69167;BME280;56273;53.148;8.204;2022-09-02T15:11:44;101566.00;;;24.66;nan
69167;BME280;56273;53.148;8.204;2022-09-02T15:14:14;101566.84;;;24.67;nan
69167;BME280;56273;53.148;8.204;2022-09-02T15:16:40;101563.25;;;24.68;nan